sensor_id;sensor_type;location;lat;lon;timestamp;P1;durP1;ratioP1;P2;durP2;ratioP2
23404;SDS011;11875;49.356;2.718;2023-06-26T00:00:01;7.43;;;2.80;;
23404;SDS011;11875;49.356;2.718;2023-06-26T00:02:29;6.97;;;2.53;;
23404;SDS011;11875;49.356;2.718;2023-06-26T00:04:57;4.75;;;2.60;;
23404;SDS011;11875;49.356;2.718;2023-06-26T00:07:23;5.30;;;2.55;;
23404;SDS011;11875;49.356;2.718;2023-06-26T00:09:49;6.97;;;2.80;;
23404;SDS011;11875;49.356;2.718;2023-06-26T00:12:14;6.57;;;2.55;;
23404;SDS011;11875;49.356;2.718;2023-06-26T00:14:40;6.57;;;2.70;;
23404;SDS011;11875;49.356;2.718;2023-06-26T00:17:05;5.30;;;2.95;;
23404;SDS011;11875;49.356;2.718;2023-06-26T00:19:31;5.28;;;2.78;;
23404;SDS011;11875;49.356;2.718;2023-06-26T00:21:58;7.38;;;2.90;;
23404;SDS011;11875;49.356;2.718;2023-06-26T00:24:23;7.82;;;2.85;;
23404;SDS011;11875;49.356;2.718;2023-06-26T00:26:49;6.85;;;2.95;;
23404;SDS011;11875;49.356;2.718;2023-06-26T00:29:14;4.53;;;2.97;;
23404;SDS011;11875;49.356;2.718;2023-06-26T00:31:40;5.35;;;3.10;;
23404;SDS011;11875;49.356;2.718;2023-06-26T00:34:06;3.75;;;2.45;;
23404;SDS011;11875;49.356;2.718;2023-06-26T00:36:32;6.82;;;2.78;;
23404;SDS011;11875;49.356;2.718;2023-06-26T00:38:58;8.13;;;3.10;;
23404;SDS011;11875;49.356;2.718;2023-06-26T00:41:23;6.03;;;2.78;;
23404;SDS011;11875;49.356;2.718;2023-06-26T00:43:49;5.97;;;3.47;;
23404;SDS011;11875;49.356;2.718;2023-06-26T00:46:16;3.53;;;2.65;;
23404;SDS011;11875;49.356;2.718;2023-06-26T00:48:42;5.32;;;2.90;;
23404;SDS011;11875;49.356;2.718;2023-06-26T00:51:10;8.00;;;3.25;;
23404;SDS011;11875;49.356;2.718;2023-06-26T00:53:36;7.03;;;2.72;;
23404;SDS011;11875;49.356;2.718;2023-06-26T00:56:02;4.85;;;2.60;;
23404;SDS011;11875;49.356;2.718;2023-06-26T00:58:29;7.28;;;3.15;;
23404;SDS011;11875;49.356;2.718;2023-06-26T01:00:55;6.00;;;2.97;;
23404;SDS011;11875;49.356;2.718;2023-06-26T01:03:22;6.18;;;3.08;;
23404;SDS011;11875;49.356;2.718;2023-06-26T01:05:49;7.80;;;3.03;;
23404;SDS011;11875;49.356;2.718;2023-06-26T01:08:17;6.13;;;3.05;;
23404;SDS011;11875;49.356;2.718;2023-06-26T01:10:43;6.22;;;2.97;;
23404;SDS011;11875;49.356;2.718;2023-06-26T01:13:10;4.90;;;2.92;;
23404;SDS011;11875;49.356;2.718;2023-06-26T01:15:37;7.95;;;3.03;;
23404;SDS011;11875;49.356;2.718;2023-06-26T01:18:04;5.97;;;2.63;;
23404;SDS011;11875;49.356;2.718;2023-06-26T01:20:31;9.85;;;2.90;;
23404;SDS011;11875;49.356;2.718;2023-06-26T01:23:12;5.47;;;2.40;;
23404;SDS011;11875;49.356;2.718;2023-06-26T01:28:16;9.65;;;2.80;;
23404;SDS011;11875;49.356;2.718;2023-06-26T01:30:44;14.65;;;3.50;;
23404;SDS011;11875;49.356;2.718;2023-06-26T01:33:12;6.97;;;2.60;;
23404;SDS011;11875;49.356;2.718;2023-06-26T01:35:38;4.53;;;2.60;;
23404;SDS011;11875;49.356;2.718;2023-06-26T01:38:12;8.68;;;2.67;;
23404;SDS011;11875;49.356;2.718;2023-06-26T01:40:38;5.25;;;2.72;;
23404;SDS011;11875;49.356;2.718;2023-06-26T01:43:05;5.00;;;2.33;;
23404;SDS011;11875;49.356;2.718;2023-06-26T01:45:36;6.75;;;3.00;;
23404;SDS011;11875;49.356;2.718;2023-06-26T01:48:04;9.95;;;3.15;;
23404;SDS011;11875;49.356;2.718;2023-06-26T01:50:34;4.07;;;2.33;;
23404;SDS011;11875;49.356;2.718;2023-06-26T01:53:04;9.98;;;2.80;;
23404;SDS011;11875;49.356;2.718;2023-06-26T01:58:02;6.25;;;2.50;;
23404;SDS011;11875;49.356;2.718;2023-06-26T02:00:28;6.68;;;2.72;;
23404;SDS011;11875;49.356;2.718;2023-06-26T02:02:54;6.88;;;2.20;;
23404;SDS011;11875;49.356;2.718;2023-06-26T02:05:20;7.30;;;3.25;;
23404;SDS011;11875;49.356;2.718;2023-06-26T02:07:45;6.45;;;2.45;;
23404;SDS011;11875;49.356;2.718;2023-06-26T02:10:11;7.57;;;2.60;;
23404;SDS011;11875;49.356;2.718;2023-06-26T02:12:37;11.20;;;2.90;;
23404;SDS011;11875;49.356;2.718;2023-06-26T02:15:03;9.18;;;2.80;;
23404;SDS011;11875;49.356;2.718;2023-06-26T02:17:29;9.90;;;2.75;;
23404;SDS011;11875;49.356;2.718;2023-06-26T02:19:55;6.53;;;2.40;;
23404;SDS011;11875;49.356;2.718;2023-06-26T02:22:21;5.97;;;2.42;;
23404;SDS011;11875;49.356;2.718;2023-06-26T02:24:47;5.45;;;2.10;;
23404;SDS011;11875;49.356;2.718;2023-06-26T02:27:12;6.80;;;2.47;;
23404;SDS011;11875;49.356;2.718;2023-06-26T02:29:38;6.85;;;2.75;;
23404;SDS011;11875;49.356;2.718;2023-06-26T02:32:05;7.97;;;1.95;;
23404;SDS011;11875;49.356;2.718;2023-06-26T02:34:31;6.97;;;2.40;;
23404;SDS011;11875;49.356;2.718;2023-06-26T02:36:56;9.70;;;2.22;;
23404;SDS011;11875;49.356;2.718;2023-06-26T02:39:23;8.50;;;2.28;;
23404;SDS011;11875;49.356;2.718;2023-06-26T02:41:49;5.90;;;2.40;;
23404;SDS011;11875;49.356;2.718;2023-06-26T02:44:14;7.82;;;2.40;;
23404;SDS011;11875;49.356;2.718;2023-06-26T02:46:40;6.63;;;2.60;;
23404;SDS011;11875;49.356;2.718;2023-06-26T02:49:06;9.30;;;2.35;;
23404;SDS011;11875;49.356;2.718;2023-06-26T02:51:35;15.25;;;2.22;;
23404;SDS011;11875;49.356;2.718;2023-06-26T02:54:00;10.25;;;2.85;;
23404;SDS011;11875;49.356;2.718;2023-06-26T02:56:26;9.27;;;1.90;;
23404;SDS011;11875;49.356;2.718;2023-06-26T02:58:55;6.55;;;2.05;;
23404;SDS011;11875;49.356;2.718;2023-06-26T03:01:21;8.95;;;2.33;;
23404;SDS011;11875;49.356;2.718;2023-06-26T03:03:46;9.07;;;2.05;;
23404;SDS011;11875;49.356;2.718;2023-06-26T03:06:13;6.95;;;2.28;;
23404;SDS011;11875;49.356;2.718;2023-06-26T03:08:39;9.50;;;2.50;;
23404;SDS011;11875;49.356;2.718;2023-06-26T03:11:05;9.93;;;2.15;;
23404;SDS011;11875;49.356;2.718;2023-06-26T03:13:32;5.43;;;2.33;;
23404;SDS011;11875;49.356;2.718;2023-06-26T03:15:58;8.57;;;2.17;;
23404;SDS011;11875;49.356;2.718;2023-06-26T03:18:24;8.32;;;1.92;;
23404;SDS011;11875;49.356;2.718;2023-06-26T03:20:51;9.85;;;2.10;;
23404;SDS011;11875;49.356;2.718;2023-06-26T03:23:19;4.93;;;2.25;;
23404;SDS011;11875;49.356;2.718;2023-06-26T03:25:45;10.18;;;3.40;;
23404;SDS011;11875;49.356;2.718;2023-06-26T03:28:10;9.15;;;2.33;;
23404;SDS011;11875;49.356;2.718;2023-06-26T03:30:36;10.77;;;2.40;;
23404;SDS011;11875;49.356;2.718;2023-06-26T03:33:02;4.88;;;2.05;;
23404;SDS011;11875;49.356;2.718;2023-06-26T03:35:28;7.57;;;2.25;;
23404;SDS011;11875;49.356;2.718;2023-06-26T03:37:53;12.55;;;2.65;;
23404;SDS011;11875;49.356;2.718;2023-06-26T03:40:19;10.30;;;2.28;;
23404;SDS011;11875;49.356;2.718;2023-06-26T03:42:45;8.43;;;1.98;;
23404;SDS011;11875;49.356;2.718;2023-06-26T03:45:10;11.40;;;2.13;;
23404;SDS011;11875;49.356;2.718;2023-06-26T03:47:36;7.15;;;2.20;;
23404;SDS011;11875;49.356;2.718;2023-06-26T03:50:02;16.17;;;3.58;;
23404;SDS011;11875;49.356;2.718;2023-06-26T03:52:28;7.05;;;2.38;;
23404;SDS011;11875;49.356;2.718;2023-06-26T03:54:55;12.63;;;2.47;;
23404;SDS011;11875;49.356;2.718;2023-06-26T03:57:25;8.25;;;2.13;;
23404;SDS011;11875;49.356;2.718;2023-06-26T03:59:51;15.10;;;2.80;;
23404;SDS011;11875;49.356;2.718;2023-06-26T04:02:18;12.07;;;2.50;;
23404;SDS011;11875;49.356;2.718;2023-06-26T04:04:44;11.88;;;2.95;;
23404;SDS011;11875;49.356;2.718;2023-06-26T04:07:09;10.50;;;2.55;;
23404;SDS011;11875;49.356;2.718;2023-06-26T04:09:35;11.45;;;2.67;;
23404;SDS011;11875;49.356;2.718;2023-06-26T04:12:00;10.90;;;2.30;;
23404;SDS011;11875;49.356;2.718;2023-06-26T04:14:27;13.32;;;2.50;;
23404;SDS011;11875;49.356;2.718;2023-06-26T04:16:52;8.48;;;2.13;;
23404;SDS011;11875;49.356;2.718;2023-06-26T04:19:18;14.45;;;2.95;;
23404;SDS011;11875;49.356;2.718;2023-06-26T04:21:44;8.82;;;2.35;;
23404;SDS011;11875;49.356;2.718;2023-06-26T04:24:10;11.43;;;2.15;;
23404;SDS011;11875;49.356;2.718;2023-06-26T04:26:35;8.02;;;2.53;;
23404;SDS011;11875;49.356;2.718;2023-06-26T04:29:02;9.95;;;2.63;;
23404;SDS011;11875;49.356;2.718;2023-06-26T04:31:28;5.53;;;2.40;;
23404;SDS011;11875;49.356;2.718;2023-06-26T04:33:53;11.45;;;2.58;;
23404;SDS011;11875;49.356;2.718;2023-06-26T04:36:20;7.32;;;2.22;;
23404;SDS011;11875;49.356;2.718;2023-06-26T04:38:46;6.50;;;1.98;;
23404;SDS011;11875;49.356;2.718;2023-06-26T04:41:13;5.75;;;2.30;;
23404;SDS011;11875;49.356;2.718;2023-06-26T04:43:39;11.90;;;2.38;;
23404;SDS011;11875;49.356;2.718;2023-06-26T04:46:04;8.63;;;2.50;;
23404;SDS011;11875;49.356;2.718;2023-06-26T04:48:30;10.30;;;2.17;;
23404;SDS011;11875;49.356;2.718;2023-06-26T04:50:57;7.88;;;2.42;;
23404;SDS011;11875;49.356;2.718;2023-06-26T04:53:23;5.00;;;2.25;;
23404;SDS011;11875;49.356;2.718;2023-06-26T04:55:50;5.30;;;2.22;;
23404;SDS011;11875;49.356;2.718;2023-06-26T04:58:16;9.48;;;2.17;;
23404;SDS011;11875;49.356;2.718;2023-06-26T05:00:42;9.43;;;2.58;;
23404;SDS011;11875;49.356;2.718;2023-06-26T05:03:11;14.77;;;2.70;;
23404;SDS011;11875;49.356;2.718;2023-06-26T05:05:38;8.43;;;2.90;;
23404;SDS011;11875;49.356;2.718;2023-06-26T05:08:16;6.97;;;2.08;;
23404;SDS011;11875;49.356;2.718;2023-06-26T05:10:51;8.57;;;2.38;;
23404;SDS011;11875;49.356;2.718;2023-06-26T05:13:18;9.23;;;2.65;;
23404;SDS011;11875;49.356;2.718;2023-06-26T05:15:45;6.75;;;2.33;;
23404;SDS011;11875;49.356;2.718;2023-06-26T05:18:11;6.72;;;2.17;;
23404;SDS011;11875;49.356;2.718;2023-06-26T05:20:37;9.55;;;2.35;;
23404;SDS011;11875;49.356;2.718;2023-06-26T05:23:03;8.30;;;2.20;;
23404;SDS011;11875;49.356;2.718;2023-06-26T05:25:29;11.25;;;2.30;;
23404;SDS011;11875;49.356;2.718;2023-06-26T05:27:56;11.55;;;2.45;;
23404;SDS011;11875;49.356;2.718;2023-06-26T05:30:23;15.57;;;2.65;;
23404;SDS011;11875;49.356;2.718;2023-06-26T05:32:55;7.63;;;2.15;;
23404;SDS011;11875;49.356;2.718;2023-06-26T05:35:21;8.95;;;2.60;;
23404;SDS011;11875;49.356;2.718;2023-06-26T05:37:50;10.23;;;2.60;;
23404;SDS011;11875;49.356;2.718;2023-06-26T05:40:17;9.60;;;2.72;;
23404;SDS011;11875;49.356;2.718;2023-06-26T05:42:44;10.88;;;3.17;;
23404;SDS011;11875;49.356;2.718;2023-06-26T05:45:09;11.50;;;2.63;;
23404;SDS011;11875;49.356;2.718;2023-06-26T05:47:36;12.88;;;2.72;;
23404;SDS011;11875;49.356;2.718;2023-06-26T05:50:02;19.17;;;2.80;;
23404;SDS011;11875;49.356;2.718;2023-06-26T05:52:28;5.85;;;2.05;;
23404;SDS011;11875;49.356;2.718;2023-06-26T05:54:55;11.38;;;2.50;;
23404;SDS011;11875;49.356;2.718;2023-06-26T05:57:23;7.38;;;2.90;;
23404;SDS011;11875;49.356;2.718;2023-06-26T05:59:49;13.98;;;3.20;;
23404;SDS011;11875;49.356;2.718;2023-06-26T06:02:16;16.80;;;4.70;;
23404;SDS011;11875;49.356;2.718;2023-06-26T06:04:41;8.07;;;2.85;;
23404;SDS011;11875;49.356;2.718;2023-06-26T06:07:07;12.32;;;3.03;;
23404;SDS011;11875;49.356;2.718;2023-06-26T06:09:32;7.32;;;2.55;;
23404;SDS011;11875;49.356;2.718;2023-06-26T06:11:58;15.75;;;3.40;;
23404;SDS011;11875;49.356;2.718;2023-06-26T06:14:24;10.18;;;2.72;;
23404;SDS011;11875;49.356;2.718;2023-06-26T06:16:50;11.95;;;2.60;;
23404;SDS011;11875;49.356;2.718;2023-06-26T06:19:15;11.05;;;2.58;;
23404;SDS011;11875;49.356;2.718;2023-06-26T06:21:41;14.02;;;2.95;;
23404;SDS011;11875;49.356;2.718;2023-06-26T06:24:08;10.05;;;2.78;;
23404;SDS011;11875;49.356;2.718;2023-06-26T06:26:34;13.25;;;3.63;;
23404;SDS011;11875;49.356;2.718;2023-06-26T06:29:00;12.52;;;3.35;;
23404;SDS011;11875;49.356;2.718;2023-06-26T06:31:26;8.73;;;2.95;;
23404;SDS011;11875;49.356;2.718;2023-06-26T06:33:53;9.02;;;2.78;;
23404;SDS011;11875;49.356;2.718;2023-06-26T06:36:22;16.35;;;3.10;;
23404;SDS011;11875;49.356;2.718;2023-06-26T06:38:47;10.98;;;2.85;;
23404;SDS011;11875;49.356;2.718;2023-06-26T06:41:13;10.50;;;3.22;;
23404;SDS011;11875;49.356;2.718;2023-06-26T06:43:39;13.05;;;3.33;;
23404;SDS011;11875;49.356;2.718;2023-06-26T06:46:04;10.20;;;2.58;;
23404;SDS011;11875;49.356;2.718;2023-06-26T06:48:31;18.67;;;3.17;;
23404;SDS011;11875;49.356;2.718;2023-06-26T06:50:56;11.00;;;3.00;;
23404;SDS011;11875;49.356;2.718;2023-06-26T06:53:22;5.80;;;2.47;;
23404;SDS011;11875;49.356;2.718;2023-06-26T06:55:48;15.60;;;3.00;;
23404;SDS011;11875;49.356;2.718;2023-06-26T06:58:15;10.48;;;2.95;;
23404;SDS011;11875;49.356;2.718;2023-06-26T07:00:49;12.05;;;2.88;;
23404;SDS011;11875;49.356;2.718;2023-06-26T07:03:17;8.55;;;2.83;;
23404;SDS011;11875;49.356;2.718;2023-06-26T07:05:42;6.78;;;2.40;;
23404;SDS011;11875;49.356;2.718;2023-06-26T07:08:08;15.75;;;3.30;;
23404;SDS011;11875;49.356;2.718;2023-06-26T07:10:33;9.40;;;3.28;;
23404;SDS011;11875;49.356;2.718;2023-06-26T07:12:59;12.27;;;3.00;;
23404;SDS011;11875;49.356;2.718;2023-06-26T07:15:25;17.52;;;3.00;;
23404;SDS011;11875;49.356;2.718;2023-06-26T07:17:51;8.15;;;3.13;;
23404;SDS011;11875;49.356;2.718;2023-06-26T07:20:16;10.63;;;5.05;;
23404;SDS011;11875;49.356;2.718;2023-06-26T07:22:42;9.57;;;3.13;;
23404;SDS011;11875;49.356;2.718;2023-06-26T07:25:09;11.52;;;2.92;;
23404;SDS011;11875;49.356;2.718;2023-06-26T07:27:36;14.75;;;2.90;;
23404;SDS011;11875;49.356;2.718;2023-06-26T07:30:02;7.13;;;2.88;;
23404;SDS011;11875;49.356;2.718;2023-06-26T07:32:28;9.90;;;3.00;;
23404;SDS011;11875;49.356;2.718;2023-06-26T07:34:54;11.10;;;2.63;;
23404;SDS011;11875;49.356;2.718;2023-06-26T07:37:20;9.23;;;2.58;;
23404;SDS011;11875;49.356;2.718;2023-06-26T07:39:45;6.10;;;2.30;;
23404;SDS011;11875;49.356;2.718;2023-06-26T07:42:12;10.07;;;2.78;;
23404;SDS011;11875;49.356;2.718;2023-06-26T07:44:37;11.40;;;2.75;;
23404;SDS011;11875;49.356;2.718;2023-06-26T07:47:03;5.97;;;2.35;;
23404;SDS011;11875;49.356;2.718;2023-06-26T07:49:29;8.38;;;2.35;;
23404;SDS011;11875;49.356;2.718;2023-06-26T07:51:55;8.75;;;2.72;;
23404;SDS011;11875;49.356;2.718;2023-06-26T07:54:20;6.82;;;2.53;;
23404;SDS011;11875;49.356;2.718;2023-06-26T07:56:58;9.48;;;2.50;;
23404;SDS011;11875;49.356;2.718;2023-06-26T07:59:26;9.38;;;2.95;;
23404;SDS011;11875;49.356;2.718;2023-06-26T08:01:53;8.55;;;2.50;;
23404;SDS011;11875;49.356;2.718;2023-06-26T08:04:21;8.55;;;2.88;;
23404;SDS011;11875;49.356;2.718;2023-06-26T08:06:48;9.80;;;2.80;;
23404;SDS011;11875;49.356;2.718;2023-06-26T08:09:14;18.65;;;2.90;;
23404;SDS011;11875;49.356;2.718;2023-06-26T08:11:40;8.57;;;2.50;;
23404;SDS011;11875;49.356;2.718;2023-06-26T08:14:06;10.27;;;2.78;;
23404;SDS011;11875;49.356;2.718;2023-06-26T08:16:32;8.52;;;2.38;;
23404;SDS011;11875;49.356;2.718;2023-06-26T08:18:57;14.35;;;3.05;;
23404;SDS011;11875;49.356;2.718;2023-06-26T08:21:23;20.40;;;3.05;;
23404;SDS011;11875;49.356;2.718;2023-06-26T08:23:48;8.90;;;2.42;;
23404;SDS011;11875;49.356;2.718;2023-06-26T08:26:14;5.85;;;2.45;;
23404;SDS011;11875;49.356;2.718;2023-06-26T08:28:39;6.10;;;2.47;;
23404;SDS011;11875;49.356;2.718;2023-06-26T08:31:05;10.00;;;2.88;;
23404;SDS011;11875;49.356;2.718;2023-06-26T08:33:31;8.45;;;2.42;;
23404;SDS011;11875;49.356;2.718;2023-06-26T08:35:56;4.88;;;2.30;;
23404;SDS011;11875;49.356;2.718;2023-06-26T08:38:22;4.40;;;2.28;;
23404;SDS011;11875;49.356;2.718;2023-06-26T08:40:47;10.98;;;2.55;;
23404;SDS011;11875;49.356;2.718;2023-06-26T08:43:13;6.22;;;2.22;;
23404;SDS011;11875;49.356;2.718;2023-06-26T08:45:39;8.27;;;2.42;;
23404;SDS011;11875;49.356;2.718;2023-06-26T08:48:07;11.38;;;2.35;;
23404;SDS011;11875;49.356;2.718;2023-06-26T08:50:34;6.90;;;2.05;;
23404;SDS011;11875;49.356;2.718;2023-06-26T08:55:47;8.10;;;2.20;;
23404;SDS011;11875;49.356;2.718;2023-06-26T08:58:15;8.18;;;2.10;;
23404;SDS011;11875;49.356;2.718;2023-06-26T09:00:41;5.13;;;2.22;;
23404;SDS011;11875;49.356;2.718;2023-06-26T09:03:07;9.23;;;2.30;;
23404;SDS011;11875;49.356;2.718;2023-06-26T09:05:34;5.25;;;1.75;;
23404;SDS011;11875;49.356;2.718;2023-06-26T09:08:01;9.63;;;2.05;;
23404;SDS011;11875;49.356;2.718;2023-06-26T09:10:27;4.57;;;1.83;;
23404;SDS011;11875;49.356;2.718;2023-06-26T09:12:55;3.95;;;1.70;;
23404;SDS011;11875;49.356;2.718;2023-06-26T09:15:23;5.93;;;1.98;;
23404;SDS011;11875;49.356;2.718;2023-06-26T09:17:49;12.20;;;2.03;;
23404;SDS011;11875;49.356;2.718;2023-06-26T09:20:15;8.88;;;2.20;;
23404;SDS011;11875;49.356;2.718;2023-06-26T09:22:43;4.70;;;2.08;;
23404;SDS011;11875;49.356;2.718;2023-06-26T09:25:12;4.70;;;1.65;;
23404;SDS011;11875;49.356;2.718;2023-06-26T09:27:38;4.70;;;1.85;;
23404;SDS011;11875;49.356;2.718;2023-06-26T09:30:05;3.53;;;1.58;;
23404;SDS011;11875;49.356;2.718;2023-06-26T09:32:33;6.35;;;1.73;;
23404;SDS011;11875;49.356;2.718;2023-06-26T09:35:02;6.93;;;1.85;;
23404;SDS011;11875;49.356;2.718;2023-06-26T09:37:28;10.15;;;1.67;;
23404;SDS011;11875;49.356;2.718;2023-06-26T09:39:54;4.75;;;1.67;;
23404;SDS011;11875;49.356;2.718;2023-06-26T09:42:20;4.93;;;1.90;;
23404;SDS011;11875;49.356;2.718;2023-06-26T09:44:47;8.63;;;2.10;;
23404;SDS011;11875;49.356;2.718;2023-06-26T09:47:20;6.28;;;1.90;;
23404;SDS011;11875;49.356;2.718;2023-06-26T09:49:46;6.43;;;1.83;;
23404;SDS011;11875;49.356;2.718;2023-06-26T09:52:14;5.63;;;1.92;;
23404;SDS011;11875;49.356;2.718;2023-06-26T09:54:44;6.57;;;1.85;;
23404;SDS011;11875;49.356;2.718;2023-06-26T09:57:11;3.75;;;1.60;;
23404;SDS011;11875;49.356;2.718;2023-06-26T09:59:38;3.90;;;1.88;;
23404;SDS011;11875;49.356;2.718;2023-06-26T10:02:05;8.90;;;2.30;;
23404;SDS011;11875;49.356;2.718;2023-06-26T10:04:31;4.13;;;1.60;;
23404;SDS011;11875;49.356;2.718;2023-06-26T10:06:58;6.53;;;1.80;;
23404;SDS011;11875;49.356;2.718;2023-06-26T10:09:27;3.33;;;1.50;;
23404;SDS011;11875;49.356;2.718;2023-06-26T10:11:57;3.60;;;1.55;;
23404;SDS011;11875;49.356;2.718;2023-06-26T10:14:32;5.43;;;2.03;;
23404;SDS011;11875;49.356;2.718;2023-06-26T10:17:01;5.95;;;1.90;;
23404;SDS011;11875;49.356;2.718;2023-06-26T10:19:29;4.00;;;1.95;;
23404;SDS011;11875;49.356;2.718;2023-06-26T10:21:57;6.30;;;1.88;;
23404;SDS011;11875;49.356;2.718;2023-06-26T10:24:25;5.80;;;1.60;;
23404;SDS011;11875;49.356;2.718;2023-06-26T10:26:59;6.60;;;2.10;;
23404;SDS011;11875;49.356;2.718;2023-06-26T10:29:29;12.45;;;2.13;;
23404;SDS011;11875;49.356;2.718;2023-06-26T10:31:57;6.28;;;1.73;;
23404;SDS011;11875;49.356;2.718;2023-06-26T10:34:25;5.97;;;2.05;;
23404;SDS011;11875;49.356;2.718;2023-06-26T10:37:03;9.98;;;1.60;;
23404;SDS011;11875;49.356;2.718;2023-06-26T10:42:14;4.15;;;1.58;;
23404;SDS011;11875;49.356;2.718;2023-06-26T10:44:44;4.57;;;1.50;;
23404;SDS011;11875;49.356;2.718;2023-06-26T10:47:11;4.28;;;1.80;;
23404;SDS011;11875;49.356;2.718;2023-06-26T10:49:53;7.07;;;1.75;;
23404;SDS011;11875;49.356;2.718;2023-06-26T10:52:19;2.63;;;1.70;;
23404;SDS011;11875;49.356;2.718;2023-06-26T10:54:44;6.30;;;1.45;;
23404;SDS011;11875;49.356;2.718;2023-06-26T10:57:10;2.55;;;1.40;;
23404;SDS011;11875;49.356;2.718;2023-06-26T10:59:38;4.28;;;1.67;;
23404;SDS011;11875;49.356;2.718;2023-06-26T11:02:05;5.07;;;1.90;;
23404;SDS011;11875;49.356;2.718;2023-06-26T11:07:21;3.40;;;1.40;;
23404;SDS011;11875;49.356;2.718;2023-06-26T11:12:42;8.43;;;2.42;;
23404;SDS011;11875;49.356;2.718;2023-06-26T11:15:12;5.32;;;1.98;;
23404;SDS011;11875;49.356;2.718;2023-06-26T11:17:38;5.18;;;1.55;;
23404;SDS011;11875;49.356;2.718;2023-06-26T11:20:05;5.95;;;1.63;;
23404;SDS011;11875;49.356;2.718;2023-06-26T11:22:36;5.00;;;1.70;;
23404;SDS011;11875;49.356;2.718;2023-06-26T11:25:03;4.38;;;1.45;;
23404;SDS011;11875;49.356;2.718;2023-06-26T11:27:39;4.63;;;1.55;;
23404;SDS011;11875;49.356;2.718;2023-06-26T11:30:06;6.47;;;1.52;;
23404;SDS011;11875;49.356;2.718;2023-06-26T11:32:33;3.83;;;1.95;;
23404;SDS011;11875;49.356;2.718;2023-06-26T11:34:59;10.73;;;2.13;;
23404;SDS011;11875;49.356;2.718;2023-06-26T11:37:25;4.07;;;1.42;;
23404;SDS011;11875;49.356;2.718;2023-06-26T11:39:51;3.13;;;1.30;;
23404;SDS011;11875;49.356;2.718;2023-06-26T11:42:17;4.90;;;1.52;;
23404;SDS011;11875;49.356;2.718;2023-06-26T11:44:44;3.92;;;2.00;;
23404;SDS011;11875;49.356;2.718;2023-06-26T11:47:19;2.60;;;1.42;;
23404;SDS011;11875;49.356;2.718;2023-06-26T11:49:46;7.53;;;1.80;;
23404;SDS011;11875;49.356;2.718;2023-06-26T11:52:14;8.38;;;1.55;;
23404;SDS011;11875;49.356;2.718;2023-06-26T11:54:41;2.63;;;1.30;;
23404;SDS011;11875;49.356;2.718;2023-06-26T11:57:07;3.45;;;1.20;;
23404;SDS011;11875;49.356;2.718;2023-06-26T11:59:39;4.50;;;1.42;;
23404;SDS011;11875;49.356;2.718;2023-06-26T12:02:08;4.28;;;1.75;;
23404;SDS011;11875;49.356;2.718;2023-06-26T12:04:38;2.85;;;1.67;;
23404;SDS011;11875;49.356;2.718;2023-06-26T12:07:06;5.30;;;1.52;;
23404;SDS011;11875;49.356;2.718;2023-06-26T12:09:42;3.05;;;1.30;;
23404;SDS011;11875;49.356;2.718;2023-06-26T12:12:09;4.63;;;1.30;;
23404;SDS011;11875;49.356;2.718;2023-06-26T12:14:35;3.47;;;1.50;;
23404;SDS011;11875;49.356;2.718;2023-06-26T12:17:05;6.57;;;1.40;;
23404;SDS011;11875;49.356;2.718;2023-06-26T12:19:33;5.03;;;1.70;;
23404;SDS011;11875;49.356;2.718;2023-06-26T12:22:05;3.83;;;1.50;;
23404;SDS011;11875;49.356;2.718;2023-06-26T12:24:31;2.35;;;1.35;;
23404;SDS011;11875;49.356;2.718;2023-06-26T12:26:57;5.97;;;1.90;;
23404;SDS011;11875;49.356;2.718;2023-06-26T12:29:31;7.40;;;1.92;;
23404;SDS011;11875;49.356;2.718;2023-06-26T12:31:58;8.60;;;1.40;;
23404;SDS011;11875;49.356;2.718;2023-06-26T12:34:46;3.75;;;1.52;;
23404;SDS011;11875;49.356;2.718;2023-06-26T12:37:14;3.90;;;1.40;;
23404;SDS011;11875;49.356;2.718;2023-06-26T12:39:50;3.63;;;1.52;;
23404;SDS011;11875;49.356;2.718;2023-06-26T12:42:27;7.28;;;1.42;;
23404;SDS011;11875;49.356;2.718;2023-06-26T12:44:54;5.20;;;1.23;;
23404;SDS011;11875;49.356;2.718;2023-06-26T12:47:25;4.70;;;1.33;;
23404;SDS011;11875;49.356;2.718;2023-06-26T12:49:56;8.73;;;1.30;;
23404;SDS011;11875;49.356;2.718;2023-06-26T12:52:22;5.60;;;1.30;;
23404;SDS011;11875;49.356;2.718;2023-06-26T12:54:52;3.20;;;1.20;;
23404;SDS011;11875;49.356;2.718;2023-06-26T12:57:18;3.22;;;1.25;;
23404;SDS011;11875;49.356;2.718;2023-06-26T12:59:44;3.97;;;1.48;;
23404;SDS011;11875;49.356;2.718;2023-06-26T13:02:09;5.57;;;1.73;;
23404;SDS011;11875;49.356;2.718;2023-06-26T13:04:36;2.75;;;1.30;;
23404;SDS011;11875;49.356;2.718;2023-06-26T13:07:04;6.18;;;1.67;;
23404;SDS011;11875;49.356;2.718;2023-06-26T13:09:31;3.15;;;1.35;;
23404;SDS011;11875;49.356;2.718;2023-06-26T13:11:58;5.32;;;1.50;;
23404;SDS011;11875;49.356;2.718;2023-06-26T13:14:24;7.10;;;1.55;;
23404;SDS011;11875;49.356;2.718;2023-06-26T13:16:49;5.63;;;1.65;;
23404;SDS011;11875;49.356;2.718;2023-06-26T13:19:15;5.85;;;1.60;;
23404;SDS011;11875;49.356;2.718;2023-06-26T13:21:41;5.05;;;1.60;;
23404;SDS011;11875;49.356;2.718;2023-06-26T13:24:07;4.05;;;1.50;;
23404;SDS011;11875;49.356;2.718;2023-06-26T13:26:32;2.33;;;1.45;;
23404;SDS011;11875;49.356;2.718;2023-06-26T13:28:58;3.63;;;1.48;;
23404;SDS011;11875;49.356;2.718;2023-06-26T13:31:24;9.40;;;1.55;;
23404;SDS011;11875;49.356;2.718;2023-06-26T13:33:50;5.68;;;1.58;;
23404;SDS011;11875;49.356;2.718;2023-06-26T13:36:17;4.70;;;1.20;;
23404;SDS011;11875;49.356;2.718;2023-06-26T13:38:43;6.05;;;2.08;;
23404;SDS011;11875;49.356;2.718;2023-06-26T13:41:10;2.17;;;1.27;;
23404;SDS011;11875;49.356;2.718;2023-06-26T13:43:36;2.78;;;1.50;;
23404;SDS011;11875;49.356;2.718;2023-06-26T13:46:02;2.63;;;1.55;;
23404;SDS011;11875;49.356;2.718;2023-06-26T13:48:28;5.70;;;1.60;;
23404;SDS011;11875;49.356;2.718;2023-06-26T13:50:54;7.38;;;1.70;;
23404;SDS011;11875;49.356;2.718;2023-06-26T13:53:21;5.03;;;1.63;;
23404;SDS011;11875;49.356;2.718;2023-06-26T13:55:47;5.20;;;1.30;;
23404;SDS011;11875;49.356;2.718;2023-06-26T13:58:13;3.20;;;1.48;;
23404;SDS011;11875;49.356;2.718;2023-06-26T14:00:39;5.03;;;1.40;;
23404;SDS011;11875;49.356;2.718;2023-06-26T14:03:06;7.03;;;1.50;;
23404;SDS011;11875;49.356;2.718;2023-06-26T14:05:32;3.17;;;1.48;;
23404;SDS011;11875;49.356;2.718;2023-06-26T14:07:58;7.22;;;1.60;;
23404;SDS011;11875;49.356;2.718;2023-06-26T14:10:24;7.40;;;1.95;;
23404;SDS011;11875;49.356;2.718;2023-06-26T14:12:50;6.65;;;2.47;;
23404;SDS011;11875;49.356;2.718;2023-06-26T14:15:16;6.57;;;1.80;;
23404;SDS011;11875;49.356;2.718;2023-06-26T14:17:41;6.72;;;1.63;;
23404;SDS011;11875;49.356;2.718;2023-06-26T14:20:07;6.70;;;1.30;;
23404;SDS011;11875;49.356;2.718;2023-06-26T14:22:41;9.40;;;1.40;;
23404;SDS011;11875;49.356;2.718;2023-06-26T14:25:08;3.40;;;1.30;;
23404;SDS011;11875;49.356;2.718;2023-06-26T14:27:34;6.72;;;1.50;;
23404;SDS011;11875;49.356;2.718;2023-06-26T14:30:00;4.05;;;1.30;;
23404;SDS011;11875;49.356;2.718;2023-06-26T14:32:26;5.15;;;1.98;;
23404;SDS011;11875;49.356;2.718;2023-06-26T14:34:52;4.22;;;1.60;;
23404;SDS011;11875;49.356;2.718;2023-06-26T14:37:18;4.57;;;1.52;;
23404;SDS011;11875;49.356;2.718;2023-06-26T14:39:44;4.25;;;1.50;;
23404;SDS011;11875;49.356;2.718;2023-06-26T14:42:10;4.97;;;1.38;;
23404;SDS011;11875;49.356;2.718;2023-06-26T14:44:35;4.10;;;1.23;;
23404;SDS011;11875;49.356;2.718;2023-06-26T14:47:01;3.40;;;1.48;;
23404;SDS011;11875;49.356;2.718;2023-06-26T14:49:27;3.78;;;1.60;;
23404;SDS011;11875;49.356;2.718;2023-06-26T14:51:52;9.20;;;1.30;;
23404;SDS011;11875;49.356;2.718;2023-06-26T14:54:18;2.35;;;1.52;;
23404;SDS011;11875;49.356;2.718;2023-06-26T14:56:43;3.58;;;1.67;;
23404;SDS011;11875;49.356;2.718;2023-06-26T14:59:10;4.63;;;1.45;;